sensor_id;sensor_type;location;lat;lon;timestamp;pressure;altitude;pressure_sealevel;temperature;humidity
70374;BME280;57792;49.198;7.890;2022-08-19T00:00:47;98447.91;;;17.86;73.92
70374;BME280;57792;49.198;7.890;2022-08-19T00:01:49;98457.72;;;17.87;73.95
70374;BME280;57792;49.198;7.890;2022-08-19T00:02:51;98449.97;;;17.82;74.18
70374;BME280;57792;49.198;7.890;2022-08-19T00:03:51;98449.00;;;17.83;73.96
70374;BME280;57792;49.198;7.890;2022-08-19T00:04:51;98446.81;;;17.88;73.66
70374;BME280;57792;49.198;7.890;2022-08-19T00:05:55;98446.69;;;17.90;74.13
70374;BME280;57792;49.198;7.890;2022-08-19T00:06:55;98445.97;;;17.88;73.96
70374;BME280;57792;49.198;7.890;2022-08-19T00:07:56;98443.50;;;17.85;74.25
70374;BME280;57792;49.198;7.890;2022-08-19T00:08:57;98446.28;;;17.72;74.58
70374;BME280;57792;49.198;7.890;2022-08-19T00:09:57;98445.59;;;17.44;76.12
70374;BME280;57792;49.198;7.890;2022-08-19T00:10:58;98434.91;;;17.56;74.80
70374;BME280;57792;49.198;7.890;2022-08-19T00:11:58;98443.63;;;17.59;75.23
70374;BME280;57792;49.198;7.890;2022-08-19T00:12:59;98445.34;;;17.60;74.93
70374;BME280;57792;49.198;7.890;2022-08-19T00:14:00;98444.03;;;17.66;74.66
70374;BME280;57792;49.198;7.890;2022-08-19T00:15:00;98441.84;;;17.71;74.63
70374;BME280;57792;49.198;7.890;2022-08-19T00:16:01;98448.28;;;17.44;75.69
70374;BME280;57792;49.198;7.890;2022-08-19T00:17:03;98449.22;;;17.56;75.08
70374;BME280;57792;49.198;7.890;2022-08-19T00:18:04;98441.66;;;17.61;74.98
70374;BME280;57792;49.198;7.890;2022-08-19T00:19:05;98455.34;;;17.71;74.53
70374;BME280;57792;49.198;7.890;2022-08-19T00:20:06;98446.03;;;17.75;74.72
70374;BME280;57792;49.198;7.890;2022-08-19T00:21:07;98448.75;;;17.75;74.34
70374;BME280;57792;49.198;7.890;2022-08-19T00:22:08;98445.19;;;17.74;74.21
70374;BME280;57792;49.198;7.890;2022-08-19T00:23:09;98437.31;;;17.71;74.66
70374;BME280;57792;49.198;7.890;2022-08-19T00:24:11;98447.81;;;17.63;74.84
70374;BME280;57792;49.198;7.890;2022-08-19T00:25:12;98449.41;;;17.66;74.82
70374;BME280;57792;49.198;7.890;2022-08-19T00:26:12;98449.94;;;17.71;74.51
70374;BME280;57792;49.198;7.890;2022-08-19T00:27:13;98452.16;;;17.53;75.51
70374;BME280;57792;49.198;7.890;2022-08-19T00:28:13;98456.88;;;17.50;75.61
70374;BME280;57792;49.198;7.890;2022-08-19T00:29:18;98455.38;;;17.58;75.12
70374;BME280;57792;49.198;7.890;2022-08-19T00:30:19;98451.25;;;17.65;74.76
70374;BME280;57792;49.198;7.890;2022-08-19T00:31:19;98458.13;;;17.69;74.64
70374;BME280;57792;49.198;7.890;2022-08-19T00:32:21;98457.41;;;17.67;74.32
70374;BME280;57792;49.198;7.890;2022-08-19T00:33:22;98457.41;;;17.67;74.71
70374;BME280;57792;49.198;7.890;2022-08-19T00:34:22;98453.94;;;17.65;74.90
70374;BME280;57792;49.198;7.890;2022-08-19T00:35:23;98441.56;;;17.63;74.64
70374;BME280;57792;49.198;7.890;2022-08-19T00:36:24;98445.34;;;17.60;74.94
70374;BME280;57792;49.198;7.890;2022-08-19T00:37:24;98443.84;;;17.56;75.32
70374;BME280;57792;49.198;7.890;2022-08-19T00:38:26;98441.66;;;17.61;74.98
70374;BME280;57792;49.198;7.890;2022-08-19T00:39:26;98444.38;;;17.61;75.00
70374;BME280;57792;49.198;7.890;2022-08-19T00:40:27;98434.09;;;17.66;74.84
70374;BME280;57792;49.198;7.890;2022-08-19T00:41:27;98430.31;;;17.69;74.42
70374;BME280;57792;49.198;7.890;2022-08-19T00:42:28;98424.41;;;17.64;74.97
70374;BME280;57792;49.198;7.890;2022-08-19T00:43:28;98426.88;;;17.67;74.47
70374;BME280;57792;49.198;7.890;2022-08-19T00:44:29;98418.66;;;17.68;74.87
70374;BME280;57792;49.198;7.890;2022-08-19T00:45:30;98427.63;;;17.69;74.67
70374;BME280;57792;49.198;7.890;2022-08-19T00:46:39;98416.94;;;17.67;74.63
70374;BME280;57792;49.198;7.890;2022-08-19T00:47:40;98406.34;;;17.53;74.86
70374;BME280;57792;49.198;7.890;2022-08-19T00:48:40;98419.13;;;17.62;74.75
70374;BME280;57792;49.198;7.890;2022-08-19T00:49:44;98418.03;;;17.65;74.68
70374;BME280;57792;49.198;7.890;2022-08-19T00:50:48;98422.53;;;17.40;75.85
70374;BME280;57792;49.198;7.890;2022-08-19T00:51:53;98413.75;;;17.50;75.22
70374;BME280;57792;49.198;7.890;2022-08-19T00:52:55;98411.84;;;17.52;75.35
70374;BME280;57792;49.198;7.890;2022-08-19T00:53:57;98407.81;;;17.57;74.86
70374;BME280;57792;49.198;7.890;2022-08-19T00:55:00;98417.97;;;17.54;74.96
70374;BME280;57792;49.198;7.890;2022-08-19T00:56:02;98416.25;;;17.53;75.14
70374;BME280;57792;49.198;7.890;2022-08-19T00:57:06;98409.88;;;17.54;75.11
70374;BME280;57792;49.198;7.890;2022-08-19T00:58:11;98419.91;;;17.52;74.93
70374;BME280;57792;49.198;7.890;2022-08-19T00:59:13;98420.66;;;17.54;74.70
70374;BME280;57792;49.198;7.890;2022-08-19T01:00:17;98422.75;;;17.01;77.37
70374;BME280;57792;49.198;7.890;2022-08-19T01:01:18;98420.72;;;17.04;77.13
70374;BME280;57792;49.198;7.890;2022-08-19T01:02:19;98420.91;;;17.14;76.43
70374;BME280;57792;49.198;7.890;2022-08-19T01:03:20;98424.53;;;17.26;76.16
70374;BME280;57792;49.198;7.890;2022-08-19T01:04:21;98418.31;;;17.12;76.75
70374;BME280;57792;49.198;7.890;2022-08-19T01:05:27;98423.25;;;17.19;76.27
70374;BME280;57792;49.198;7.890;2022-08-19T01:06:30;98418.81;;;17.18;76.33
70374;BME280;57792;49.198;7.890;2022-08-19T01:07:33;98414.81;;;17.23;75.87
70374;BME280;57792;49.198;7.890;2022-08-19T01:08:34;98424.41;;;17.27;75.71
70374;BME280;57792;49.198;7.890;2022-08-19T01:09:35;98419.88;;;17.28;75.68
70374;BME280;57792;49.198;7.890;2022-08-19T01:10:39;98412.88;;;17.25;76.25
70374;BME280;57792;49.198;7.890;2022-08-19T01:11:43;98417.25;;;17.15;76.57
70374;BME280;57792;49.198;7.890;2022-08-19T01:12:46;98421.41;;;17.19;76.32
70374;BME280;57792;49.198;7.890;2022-08-19T01:13:47;98417.41;;;17.25;75.68
70374;BME280;57792;49.198;7.890;2022-08-19T01:14:49;98416.22;;;17.29;75.54
70374;BME280;57792;49.198;7.890;2022-08-19T01:15:55;98419.78;;;17.29;75.69
70374;BME280;57792;49.198;7.890;2022-08-19T01:16:57;98416.97;;;17.31;75.87
70374;BME280;57792;49.198;7.890;2022-08-19T01:18:04;98414.38;;;17.29;75.72
70374;BME280;57792;49.198;7.890;2022-08-19T01:19:21;98425.72;;;17.22;76.08
70374;BME280;57792;49.198;7.890;2022-08-19T01:20:25;98423.66;;;17.25;75.99
70374;BME280;57792;49.198;7.890;2022-08-19T01:21:42;98431.69;;;17.14;76.23
70374;BME280;57792;49.198;7.890;2022-08-19T01:22:52;98426.78;;;17.19;76.03
70374;BME280;57792;49.198;7.890;2022-08-19T01:23:53;98426.69;;;17.21;75.70
70374;BME280;57792;49.198;7.890;2022-08-19T01:24:54;98423.25;;;17.19;75.87
70374;BME280;57792;49.198;7.890;2022-08-19T01:25:54;98431.44;;;17.17;76.15
70374;BME280;57792;49.198;7.890;2022-08-19T01:26:56;98431.03;;;17.10;76.32
70374;BME280;57792;49.198;7.890;2022-08-19T01:27:57;98427.56;;;16.72;78.04
70374;BME280;57792;49.198;7.890;2022-08-19T01:28:59;98429.78;;;16.91;77.00
70374;BME280;57792;49.198;7.890;2022-08-19T01:30:01;98425.19;;;16.67;78.32
70374;BME280;57792;49.198;7.890;2022-08-19T01:31:02;98424.44;;;16.78;77.49
70374;BME280;57792;49.198;7.890;2022-08-19T01:32:03;98425.56;;;16.87;77.34
70374;BME280;57792;49.198;7.890;2022-08-19T01:33:03;98426.00;;;16.93;77.04
70374;BME280;57792;49.198;7.890;2022-08-19T01:34:07;98435.16;;;16.91;77.07
70374;BME280;57792;49.198;7.890;2022-08-19T01:35:08;98439.78;;;16.89;77.13
70374;BME280;57792;49.198;7.890;2022-08-19T01:36:13;98439.16;;;16.85;77.46
70374;BME280;57792;49.198;7.890;2022-08-19T01:37:14;98433.16;;;16.69;78.05
70374;BME280;57792;49.198;7.890;2022-08-19T01:38:27;98436.66;;;16.57;78.75
70374;BME280;57792;49.198;7.890;2022-08-19T01:39:31;98439.41;;;16.69;77.90
70374;BME280;57792;49.198;7.890;2022-08-19T01:40:34;98440.47;;;16.79;77.74
70374;BME280;57792;49.198;7.890;2022-08-19T01:41:35;98431.31;;;16.82;77.35
70374;BME280;57792;49.198;7.890;2022-08-19T01:42:36;98441.28;;;16.93;76.67
70374;BME280;57792;49.198;7.890;2022-08-19T01:43:37;98440.00;;;16.98;76.61
70374;BME280;57792;49.198;7.890;2022-08-19T01:44:39;98435.69;;;16.96;76.77
70374;BME280;57792;49.198;7.890;2022-08-19T01:45:41;98444.63;;;16.96;76.61
70374;BME280;57792;49.198;7.890;2022-08-19T01:46:42;98442.06;;;16.95;76.98
70374;BME280;57792;49.198;7.890;2022-08-19T01:47:43;98437.31;;;16.86;77.11
70374;BME280;57792;49.198;7.890;2022-08-19T01:48:44;98442.69;;;16.86;76.99
70374;BME280;57792;49.198;7.890;2022-08-19T01:49:45;98434.34;;;16.77;77.46
70374;BME280;57792;49.198;7.890;2022-08-19T01:50:46;98440.47;;;16.79;77.35
70374;BME280;57792;49.198;7.890;2022-08-19T01:51:48;98434.22;;;16.66;77.85
70374;BME280;57792;49.198;7.890;2022-08-19T01:52:49;98431.84;;;16.74;77.44
70374;BME280;57792;49.198;7.890;2022-08-19T01:53:51;98445.41;;;16.86;77.11
70374;BME280;57792;49.198;7.890;2022-08-19T01:54:51;98435.25;;;16.89;76.83
70374;BME280;57792;49.198;7.890;2022-08-19T01:55:52;98437.47;;;16.84;77.20
70374;BME280;57792;49.198;7.890;2022-08-19T01:56:57;98439.34;;;16.95;76.64
70374;BME280;57792;49.198;7.890;2022-08-19T01:58:02;98441.72;;;16.99;76.22
70374;BME280;57792;49.198;7.890;2022-08-19T01:59:14;98447.53;;;16.93;76.69
70374;BME280;57792;49.198;7.890;2022-08-19T02:00:19;98445.59;;;16.95;76.55
70374;BME280;57792;49.198;7.890;2022-08-19T02:01:20;98446.94;;;16.77;77.63
70374;BME280;57792;49.198;7.890;2022-08-19T02:02:20;98440.38;;;16.81;76.91
70374;BME280;57792;49.198;7.890;2022-08-19T02:03:21;98449.38;;;16.93;76.67
70374;BME280;57792;49.198;7.890;2022-08-19T02:04:21;98453.69;;;16.95;76.28
70374;BME280;57792;49.198;7.890;2022-08-19T02:05:23;98451.84;;;16.96;76.58
70374;BME280;57792;49.198;7.890;2022-08-19T02:06:24;98450.56;;;17.01;76.11
70374;BME280;57792;49.198;7.890;2022-08-19T02:07:24;98451.41;;;17.02;76.12
70374;BME280;57792;49.198;7.890;2022-08-19T02:08:28;98448.06;;;16.98;76.06
70374;BME280;57792;49.198;7.890;2022-08-19T02:09:31;98451.84;;;16.96;76.40
70374;BME280;57792;49.198;7.890;2022-08-19T02:10:31;98449.38;;;16.93;76.41
70374;BME280;57792;49.198;7.890;2022-08-19T02:11:34;98453.16;;;16.90;76.79
70374;BME280;57792;49.198;7.890;2022-08-19T02:12:35;98451.53;;;16.88;76.65
70374;BME280;57792;49.198;7.890;2022-08-19T02:13:36;98449.19;;;16.83;76.74
70374;BME280;57792;49.198;7.890;2022-08-19T02:14:37;98447.13;;;16.87;76.50
70374;BME280;57792;49.198;7.890;2022-08-19T02:15:37;98454.75;;;16.93;76.29
70374;BME280;57792;49.198;7.890;2022-08-19T02:16:37;98452.94;;;16.93;76.41
70374;BME280;57792;49.198;7.890;2022-08-19T02:17:39;98450.38;;;16.79;76.82
70374;BME280;57792;49.198;7.890;2022-08-19T02:18:40;98454.16;;;16.76;76.75
70374;BME280;57792;49.198;7.890;2022-08-19T02:19:40;98455.56;;;16.82;76.68
70374;BME280;57792;49.198;7.890;2022-08-19T02:20:42;98447.59;;;16.81;76.87
70374;BME280;57792;49.198;7.890;2022-08-19T02:21:43;98451.44;;;16.51;77.87
70374;BME280;57792;49.198;7.890;2022-08-19T02:22:44;98446.13;;;16.24;79.10
70374;BME280;57792;49.198;7.890;2022-08-19T02:23:45;98441.09;;;16.32;78.75
70374;BME280;57792;49.198;7.890;2022-08-19T02:24:46;98447.34;;;16.45;78.20
70374;BME280;57792;49.198;7.890;2022-08-19T02:25:48;98447.44;;;16.57;77.57
70374;BME280;57792;49.198;7.890;2022-08-19T02:26:48;98454.16;;;16.64;77.29
70374;BME280;57792;49.198;7.890;2022-08-19T02:27:49;98451.94;;;16.56;77.36
70374;BME280;57792;49.198;7.890;2022-08-19T02:28:49;98457.22;;;16.58;77.43
70374;BME280;57792;49.198;7.890;2022-08-19T02:29:50;98462.13;;;16.65;77.00
70374;BME280;57792;49.198;7.890;2022-08-19T02:30:51;98460.19;;;16.67;76.92
70374;BME280;57792;49.198;7.890;2022-08-19T02:31:51;98456.69;;;16.53;77.46
70374;BME280;57792;49.198;7.890;2022-08-19T02:32:52;98459.75;;;16.61;77.15
70374;BME280;57792;49.198;7.890;2022-08-19T02:33:54;98462.75;;;16.69;76.94
70374;BME280;57792;49.198;7.890;2022-08-19T02:34:55;98458.78;;;16.74;76.70
70374;BME280;57792;49.198;7.890;2022-08-19T02:35:56;98466.53;;;16.79;76.63
70374;BME280;57792;49.198;7.890;2022-08-19T02:36:56;98453.13;;;16.52;77.87
70374;BME280;57792;49.198;7.890;2022-08-19T02:37:56;98447.75;;;16.52;77.36
70374;BME280;57792;49.198;7.890;2022-08-19T02:39:15;98444.44;;;16.61;77.00
70374;BME280;57792;49.198;7.890;2022-08-19T02:40:16;98446.34;;;16.59;76.91
70374;BME280;57792;49.198;7.890;2022-08-19T02:41:20;98432.25;;;16.56;77.07
70374;BME280;57792;49.198;7.890;2022-08-19T02:42:21;98439.28;;;16.45;77.32
70374;BME280;57792;49.198;7.890;2022-08-19T02:43:22;98451.94;;;16.31;78.56
70374;BME280;57792;49.198;7.890;2022-08-19T02:44:22;98445.06;;;16.39;77.75
70374;BME280;57792;49.198;7.890;2022-08-19T02:45:23;98447.13;;;16.49;77.34
70374;BME280;57792;49.198;7.890;2022-08-19T02:46:26;98451.94;;;16.56;77.21
70374;BME280;57792;49.198;7.890;2022-08-19T02:47:27;98453.38;;;16.62;76.97
70374;BME280;57792;49.198;7.890;2022-08-19T02:48:28;98448.97;;;16.61;76.90
70374;BME280;57792;49.198;7.890;2022-08-19T02:49:28;98447.16;;;16.61;76.90
70374;BME280;57792;49.198;7.890;2022-08-19T02:50:31;98455.41;;;16.58;77.00
70374;BME280;57792;49.198;7.890;2022-08-19T02:51:37;98451.31;;;16.53;77.12
70374;BME280;57792;49.198;7.890;2022-08-19T02:52:38;98452.41;;;16.50;77.34
70374;BME280;57792;49.198;7.890;2022-08-19T02:53:39;98460.88;;;16.57;76.97
70374;BME280;57792;49.198;7.890;2022-08-19T02:54:39;98461.47;;;16.62;76.72
70374;BME280;57792;49.198;7.890;2022-08-19T02:55:45;98451.94;;;16.56;76.65
70374;BME280;57792;49.198;7.890;2022-08-19T02:56:46;98448.50;;;16.54;76.67
70374;BME280;57792;49.198;7.890;2022-08-19T02:57:47;98452.16;;;16.28;77.87
70374;BME280;57792;49.198;7.890;2022-08-19T02:58:48;98452.38;;;16.25;77.96
70374;BME280;57792;49.198;7.890;2022-08-19T02:59:49;98452.06;;;16.29;77.67
70374;BME280;57792;49.198;7.890;2022-08-19T03:00:55;98452.28;;;16.39;77.35
70374;BME280;57792;49.198;7.890;2022-08-19T03:01:55;98453.16;;;16.39;77.11
70374;BME280;57792;49.198;7.890;2022-08-19T03:02:56;98461.13;;;16.41;77.07
70374;BME280;57792;49.198;7.890;2022-08-19T03:03:58;98456.59;;;16.41;77.18
70374;BME280;57792;49.198;7.890;2022-08-19T03:04:59;98453.59;;;16.46;76.93
70374;BME280;57792;49.198;7.890;2022-08-19T03:06:11;98453.78;;;16.43;76.85
70374;BME280;57792;49.198;7.890;2022-08-19T03:07:14;98453.91;;;16.41;76.88
70374;BME280;57792;49.198;7.890;2022-08-19T03:08:15;98452.94;;;16.42;77.04
70374;BME280;57792;49.198;7.890;2022-08-19T03:09:16;98450.34;;;16.41;76.78
70374;BME280;57792;49.198;7.890;2022-08-19T03:10:17;98448.81;;;16.24;77.64
70374;BME280;57792;49.198;7.890;2022-08-19T03:11:24;98457.16;;;15.94;78.83
70374;BME280;57792;49.198;7.890;2022-08-19T03:12:25;98455.66;;;16.03;78.34
70374;BME280;57792;49.198;7.890;2022-08-19T03:13:25;98454.28;;;16.10;77.90
70374;BME280;57792;49.198;7.890;2022-08-19T03:14:26;98460.88;;;16.19;77.58
70374;BME280;57792;49.198;7.890;2022-08-19T03:15:27;98448.16;;;16.21;77.33
70374;BME280;57792;49.198;7.890;2022-08-19T03:16:30;98444.41;;;16.23;77.36
70374;BME280;57792;49.198;7.890;2022-08-19T03:17:31;98417.25;;;16.01;77.37
70374;BME280;57792;49.198;7.890;2022-08-19T03:18:31;98466.66;;;16.25;77.13
70374;BME280;57792;49.198;7.890;2022-08-19T03:19:32;98469.25;;;16.27;77.08
70374;BME280;57792;49.198;7.890;2022-08-19T03:20:32;98464.53;;;16.30;76.68
70374;BME280;57792;49.198;7.890;2022-08-19T03:21:34;98475.28;;;16.30;76.86
70374;BME280;57792;49.198;7.890;2022-08-19T03:22:34;98471.84;;;16.28;76.98
70374;BME280;57792;49.198;7.890;2022-08-19T03:23:35;98476.16;;;16.31;76.81
70374;BME280;57792;49.198;7.890;2022-08-19T03:24:37;98475.28;;;16.18;77.27
70374;BME280;57792;49.198;7.890;2022-08-19T03:25:43;98479.47;;;16.09;77.57
70374;BME280;57792;49.198;7.890;2022-08-19T03:26:50;98475.66;;;15.99;78.04
70374;BME280;57792;49.198;7.890;2022-08-19T03:27:51;98474.84;;;16.11;77.34
70374;BME280;57792;49.198;7.890;2022-08-19T03:28:51;98483.78;;;16.11;77.24
70374;BME280;57792;49.198;7.890;2022-08-19T03:29:52;98474.19;;;16.20;77.13
70374;BME280;57792;49.198;7.890;2022-08-19T03:31:02;98474.31;;;16.19;77.14
70374;BME280;57792;49.198;7.890;2022-08-19T03:32:04;98471.50;;;16.07;77.44
70374;BME280;57792;49.198;7.890;2022-08-19T03:33:05;98477.38;;;16.00;77.77
70374;BME280;57792;49.198;7.890;2022-08-19T03:34:05;98466.72;;;15.86;78.25
70374;BME280;57792;49.198;7.890;2022-08-19T03:35:06;98480.00;;;15.74;78.74
70374;BME280;57792;49.198;7.890;2022-08-19T03:36:10;98475.50;;;15.61;79.51
70374;BME280;57792;49.198;7.890;2022-08-19T03:37:11;98468.50;;;15.72;78.54
70374;BME280;57792;49.198;7.890;2022-08-19T03:38:12;98457.22;;;15.80;78.22
70374;BME280;57792;49.198;7.890;2022-08-19T03:39:13;98470.78;;;15.91;77.69
70374;BME280;57792;49.198;7.890;2022-08-19T03:40:14;98460.59;;;15.96;77.46
70374;BME280;57792;49.198;7.890;2022-08-19T03:41:18;98464.88;;;15.86;77.81
70374;BME280;57792;49.198;7.890;2022-08-19T03:42:18;98460.44;;;15.72;78.37
70374;BME280;57792;49.198;7.890;2022-08-19T03:43:19;98457.88;;;15.84;77.74
70374;BME280;57792;49.198;7.890;2022-08-19T03:44:21;98448.53;;;15.89;77.79
70374;BME280;57792;49.198;7.890;2022-08-19T03:45:22;98462.53;;;15.94;77.40
70374;BME280;57792;49.198;7.890;2022-08-19T03:46:26;98455.41;;;15.93;77.35
70374;BME280;57792;49.198;7.890;2022-08-19T03:47:27;98457.16;;;15.94;77.24
70374;BME280;57792;49.198;7.890;2022-08-19T03:48:27;98455.53;;;15.92;77.27
70374;BME280;57792;49.198;7.890;2022-08-19T03:49:29;98455.63;;;15.90;77.00
70374;BME280;57792;49.198;7.890;2022-08-19T03:50:30;98463.78;;;15.89;76.83
70374;BME280;57792;49.198;7.890;2022-08-19T03:51:33;98461.00;;;15.90;76.97
70374;BME280;57792;49.198;7.890;2022-08-19T03:52:35;98453.47;;;15.83;77.07
70374;BME280;57792;49.198;7.890;2022-08-19T03:53:36;98461.53;;;15.83;77.00
70374;BME280;57792;49.198;7.890;2022-08-19T03:54:37;98453.56;;;15.81;77.01
70374;BME280;57792;49.198;7.890;2022-08-19T03:55:41;98471.53;;;15.81;77.08
70374;BME280;57792;49.198;7.890;2022-08-19T03:56:43;98466.25;;;15.79;77.06
70374;BME280;57792;49.198;7.890;2022-08-19T03:57:43;98470.78;;;15.78;77.04
70374;BME280;57792;49.198;7.890;2022-08-19T03:58:46;98467.13;;;15.79;77.04
70374;BME280;57792;49.198;7.890;2022-08-19T03:59:46;98467.41;;;15.75;77.16
70374;BME280;57792;49.198;7.890;2022-08-19T04:00:46;98468.38;;;15.74;77.12
70374;BME280;57792;49.198;7.890;2022-08-19T04:01:47;98467.72;;;15.70;77.20
70374;BME280;57792;49.198;7.890;2022-08-19T04:02:47;98471.38;;;15.69;77.27
70374;BME280;57792;49.198;7.890;2022-08-19T04:03:48;98471.66;;;15.65;77.52
70374;BME280;57792;49.198;7.890;2022-08-19T04:04:49;98467.50;;;15.32;79.02
70374;BME280;57792;49.198;7.890;2022-08-19T04:05:53;98473.38;;;15.25;79.34
70374;BME280;57792;49.198;7.890;2022-08-19T04:06:53;98469.81;;;15.38;78.60
70374;BME280;57792;49.198;7.890;2022-08-19T04:07:54;98465.00;;;15.43;78.53
70374;BME280;57792;49.198;7.890;2022-08-19T04:09:00;98470.38;;;15.43;78.46
70374;BME280;57792;49.198;7.890;2022-08-19T04:10:02;98463.84;;;15.48;78.31
70374;BME280;57792;49.198;7.890;2022-08-19T04:11:07;98457.72;;;15.45;78.26
70374;BME280;57792;49.198;7.890;2022-08-19T04:12:08;98466.13;;;15.54;78.13
70374;BME280;57792;49.198;7.890;2022-08-19T04:13:08;98460.22;;;15.61;77.93
70374;BME280;57792;49.198;7.890;2022-08-19T04:14:11;98459.28;;;15.62;77.72
70374;BME280;57792;49.198;7.890;2022-08-19T04:15:12;98460.19;;;15.49;78.32
70374;BME280;57792;49.198;7.890;2022-08-19T04:16:12;98443.22;;;15.48;78.14
70374;BME280;57792;49.198;7.890;2022-08-19T04:17:13;98456.97;;;15.56;77.99
70374;BME280;57792;49.198;7.890;2022-08-19T04:18:14;98438.59;;;15.50;77.83
70374;BME280;57792;49.198;7.890;2022-08-19T04:19:16;98441.38;;;15.49;77.99
70374;BME280;57792;49.198;7.890;2022-08-19T04:20:16;98432.31;;;15.37;78.52
70374;BME280;57792;49.198;7.890;2022-08-19T04:21:21;98432.56;;;15.46;78.02
70374;BME280;57792;49.198;7.890;2022-08-19T04:22:22;98444.75;;;15.52;78.08
70374;BME280;57792;49.198;7.890;2022-08-19T04:23:23;98439.03;;;15.57;77.96
70374;BME280;57792;49.198;7.890;2022-08-19T04:24:23;98440.97;;;15.55;77.87
70374;BME280;57792;49.198;7.890;2022-08-19T04:25:24;98442.75;;;15.41;78.63
70374;BME280;57792;49.198;7.890;2022-08-19T04:26:27;98444.75;;;15.52;77.99
70374;BME280;57792;49.198;7.890;2022-08-19T04:27:28;98437.75;;;15.50;77.95
70374;BME280;57792;49.198;7.890;2022-08-19T04:28:29;98446.66;;;15.50;78.02
70374;BME280;57792;49.198;7.890;2022-08-19T04:29:29;98442.53;;;15.44;78.33
70374;BME280;57792;49.198;7.890;2022-08-19T04:30:30;98445.13;;;15.46;78.10
70374;BME280;57792;49.198;7.890;2022-08-19T04:31:32;98450.50;;;15.46;78.20
70374;BME280;57792;49.198;7.890;2022-08-19T04:32:35;98441.88;;;15.14;79.52
70374;BME280;57792;49.198;7.890;2022-08-19T04:33:35;98453.63;;;15.26;79.22
70374;BME280;57792;49.198;7.890;2022-08-19T04:34:37;98442.88;;;15.26;79.07
70374;BME280;57792;49.198;7.890;2022-08-19T04:35:42;98446.66;;;15.09;80.01
70374;BME280;57792;49.198;7.890;2022-08-19T04:36:44;98447.13;;;15.16;79.39
70374;BME280;57792;49.198;7.890;2022-08-19T04:37:44;98446.31;;;15.28;78.92
70374;BME280;57792;49.198;7.890;2022-08-19T04:38:45;98453.78;;;15.37;78.92
70374;BME280;57792;49.198;7.890;2022-08-19T04:39:45;98450.13;;;15.11;79.66
70374;BME280;57792;49.198;7.890;2022-08-19T04:41:04;98455.59;;;14.67;81.74
70374;BME280;57792;49.198;7.890;2022-08-19T04:42:23;98449.38;;;14.81;81.36
70374;BME280;57792;49.198;7.890;2022-08-19T04:43:38;98443.88;;;14.96;80.61
70374;BME280;57792;49.198;7.890;2022-08-19T04:44:39;98439.19;;;15.14;79.72
70374;BME280;57792;49.198;7.890;2022-08-19T04:45:39;98441.38;;;15.22;79.38
70374;BME280;57792;49.198;7.890;2022-08-19T04:46:40;98440.44;;;15.08;79.99
70374;BME280;57792;49.198;7.890;2022-08-19T04:47:42;98435.44;;;15.17;79.90
70374;BME280;57792;49.198;7.890;2022-08-19T04:48:44;98438.16;;;15.29;79.44
70374;BME280;57792;49.198;7.890;2022-08-19T04:49:44;98434.13;;;15.36;79.16
70374;BME280;57792;49.198;7.890;2022-08-19T04:50:45;98434.50;;;15.44;78.73
70374;BME280;57792;49.198;7.890;2022-08-19T04:51:46;98434.97;;;15.37;79.26
70374;BME280;57792;49.198;7.890;2022-08-19T04:52:50;98443.16;;;15.35;79.20
70374;BME280;57792;49.198;7.890;2022-08-19T04:53:51;98442.78;;;15.27;79.75
70374;BME280;57792;49.198;7.890;2022-08-19T04:54:52;98445.84;;;15.35;79.40
70374;BME280;57792;49.198;7.890;2022-08-19T04:55:56;98444.66;;;15.39;79.15
70374;BME280;57792;49.198;7.890;2022-08-19T04:56:56;98455.03;;;15.45;78.97
70374;BME280;57792;49.198;7.890;2022-08-19T04:57:57;98463.75;;;15.49;78.70
70374;BME280;57792;49.198;7.890;2022-08-19T04:58:57;98466.88;;;15.56;78.48
70374;BME280;57792;49.198;7.890;2022-08-19T04:59:58;98468.38;;;15.33;79.47
70374;BME280;57792;49.198;7.890;2022-08-19T05:00:58;98472.75;;;15.48;78.86
70374;BME280;57792;49.198;7.890;2022-08-19T05:02:00;98479.34;;;15.57;78.52
70374;BME280;57792;49.198;7.890;2022-08-19T05:03:00;98475.88;;;15.55;78.77
70374;BME280;57792;49.198;7.890;2022-08-19T05:04:04;98482.44;;;15.51;78.87
70374;BME280;57792;49.198;7.890;2022-08-19T05:05:05;98477.22;;;15.62;78.41
70374;BME280;57792;49.198;7.890;2022-08-19T05:06:08;98484.63;;;15.58;78.77
70374;BME280;57792;49.198;7.890;2022-08-19T05:07:10;98474.06;;;15.55;78.77
70374;BME280;57792;49.198;7.890;2022-08-19T05:08:16;98473.41;;;15.66;78.47
70374;BME280;57792;49.198;7.890;2022-08-19T05:09:19;98473.41;;;15.66;78.50
70374;BME280;57792;49.198;7.890;2022-08-19T05:10:21;98466.47;;;15.62;78.26
70374;BME280;57792;49.198;7.890;2022-08-19T05:11:25;98479.13;;;15.74;78.34
70374;BME280;57792;49.198;7.890;2022-08-19T05:12:26;98473.75;;;15.74;78.25
70374;BME280;57792;49.198;7.890;2022-08-19T05:13:28;98474.72;;;15.73;78.38
70374;BME280;57792;49.198;7.890;2022-08-19T05:14:29;98486.03;;;15.64;78.87
70374;BME280;57792;49.198;7.890;2022-08-19T05:15:30;98493.28;;;15.49;79.35
70374;BME280;57792;49.198;7.890;2022-08-19T05:16:31;98488.06;;;15.60;79.04
70374;BME280;57792;49.198;7.890;2022-08-19T05:17:31;98485.53;;;15.44;79.59
70374;BME280;57792;49.198;7.890;2022-08-19T05:18:32;98490.28;;;15.68;78.95
70374;BME280;57792;49.198;7.890;2022-08-19T05:19:50;98492.06;;;15.82;78.61
70374;BME280;57792;49.198;7.890;2022-08-19T05:21:12;98488.31;;;15.84;78.37
70374;BME280;57792;49.198;7.890;2022-08-19T05:22:32;98503.16;;;15.90;78.33
70374;BME280;57792;49.198;7.890;2022-08-19T05:23:34;98499.97;;;15.97;78.24
70374;BME280;57792;49.198;7.890;2022-08-19T05:24:35;98501.28;;;16.04;78.00
70374;BME280;57792;49.198;7.890;2022-08-19T05:25:39;98500.41;;;16.04;77.79
70374;BME280;57792;49.198;7.890;2022-08-19T05:26:43;98495.81;;;16.06;77.98
70374;BME280;57792;49.198;7.890;2022-08-19T05:27:47;98493.31;;;16.03;77.89
70374;BME280;57792;49.198;7.890;2022-08-19T05:28:47;98493.00;;;16.07;77.97
70374;BME280;57792;49.198;7.890;2022-08-19T05:29:48;98500.00;;;16.10;77.74